Погода Рио Пирасисабана неделю

Минас-Жерайс, Бразилия

14 - 20 июля
  • 14июля
    Сегодня
    +11°
    +23°
    Облачно с прояснениями
    ВремяПогодаТемператураВлажностьДавлениеВетер, м/сВероятность осадков
    00:00Небольшая облачность+14°C90 %715 мм1.5 м/с10 %
    03:00Облачно с прояснениями+13°C92 %715 мм1.4 м/с8 %
    06:00Небольшая облачность+13°C96 %715 мм1.5 м/с5 %
    09:00Облачно с прояснениями+17°C74 %716 мм2.3 м/с11 %
    12:00Небольшая облачность+22°C54 %716 мм2.6 м/с20 %
    15:00Облачно с прояснениями+23°C42 %715 мм2.3 м/с5 %
    18:00Ясно и безоблачно+17°C53 %714 мм2.2 м/с5 %
    21:00Ясно и безоблачно+16°C61 %715 мм2.1 м/с5 %
  • 15июля
    Понедельник
    +11°
    +25°
    Практически безоблачно
    ВремяПогодаТемператураВлажностьДавлениеВетер, м/сВероятность осадков
    00:00Ясно и безоблачно+13°C67 %714 мм1.1 м/с5 %
    03:00Практически безоблачно+13°C70 %714 мм1.4 м/с5 %
    06:00Ясно и безоблачно+11°C87 %714 мм1.8 м/с5 %
    09:00Ясно и безоблачно+17°C72 %717 мм1.4 м/с5 %
    12:00Практически безоблачно+23°C51 %716 мм1.3 м/с5 %
    15:00Практически безоблачно+24°C43 %715 мм1.2 м/с5 %
    18:00Ясно и безоблачно+18°C58 %715 мм2.2 м/с5 %
    21:00Ясно и безоблачно+16°C70 %716 мм1.6 м/с5 %
  • 16июля
    Вторник
    +11°
    +24°
    Облачно с прояснениями
    ВремяПогодаТемператураВлажностьДавлениеВетер, м/сВероятность осадков
    00:00Небольшая облачность+13°C76 %716 мм1.6 м/с5 %
    03:00Облачно с прояснениями+12°C83 %715 мм1.8 м/с5 %
    06:00Небольшая облачность+11°C84 %715 мм1.4 м/с5 %
    09:00Облачно с прояснениями+17°C68 %718 мм1.1 м/с5 %
    12:00Облачно с прояснениями+23°C51 %717 мм2.6 м/с3 %
    15:00Облачно с прояснениями+24°C45 %716 мм2.7 м/с3 %
    18:00Облачно с прояснениями+18°C62 %715 мм1.6 м/с5 %
    21:00Практически безоблачно+17°C70 %716 мм1.4 м/с5 %
  • 17июля
    Среда
    +11°
    +25°
    Практически безоблачно
    ВремяПогодаТемператураВлажностьДавлениеВетер, м/сВероятность осадков
    00:00Ясно и безоблачно+13°C85 %716 мм1.6 м/с5 %
    03:00Ясно и безоблачно+12°C91 %715 мм1.2 м/с5 %
    06:00Ясно и безоблачно+12°C92 %716 мм0.9 м/с4 %
    09:00Небольшая облачность+17°C78 %718 мм1.8 м/с7 %
    12:00Практически безоблачно+23°C52 %717 мм1.7 м/с5 %
    15:00Практически безоблачно+24°C45 %715 мм1.2 м/с4 %
    18:00Практически безоблачно+18°C60 %714 мм1.9 м/с5 %
    21:00Ясно и безоблачно+17°C65 %715 мм0.6 м/с5 %
  • 18июля
    Четверг
    +13°
    +27°
    Ясно и безоблачно
    ВремяПогодаТемператураВлажностьДавлениеВетер, м/сВероятность осадков
    00:00Ясно и безоблачно+13°C79 %714 мм1.6 м/с5 %
    03:00Ясно и безоблачно+12°C83 %713 мм1.2 м/с5 %
    06:00Ясно и безоблачно+12°C84 %714 мм0.8 м/с5 %
    09:00Ясно и безоблачно+17°C62 %716 мм1.1 м/с5 %
    12:00Ясно и безоблачно+24°C44 %715 мм1.2 м/с5 %
    15:00Ясно и безоблачно+26°C38 %714 мм0.7 м/с5 %
    18:00Ясно и безоблачно+18°C53 %713 мм2.0 м/с5 %
    21:00Ясно и безоблачно+17°C65 %714 мм1.5 м/с5 %
Мы используем cookies
Соглашаюсь